sensor_id;sensor_type;location;lat;lon;timestamp;P1;durP1;ratioP1;P2;durP2;ratioP2
75698;SDS011;64313;51.018;13.742;2023-04-05T00:00:30;4.78;;;1.92;;
75698;SDS011;64313;51.018;13.742;2023-04-05T00:02:57;5.32;;;2.10;;
75698;SDS011;64313;51.018;13.742;2023-04-05T00:05:26;6.32;;;2.33;;
75698;SDS011;64313;51.018;13.742;2023-04-05T00:08:02;6.57;;;2.40;;
75698;SDS011;64313;51.018;13.742;2023-04-05T00:10:29;6.03;;;2.20;;
75698;SDS011;64313;51.018;13.742;2023-04-05T00:12:55;6.50;;;2.55;;
75698;SDS011;64313;51.018;13.742;2023-04-05T00:15:23;7.18;;;2.65;;
75698;SDS011;64313;51.018;13.742;2023-04-05T00:17:49;7.13;;;2.60;;
75698;SDS011;64313;51.018;13.742;2023-04-05T00:20:15;6.28;;;2.45;;
75698;SDS011;64313;51.018;13.742;2023-04-05T00:22:40;6.90;;;2.40;;
75698;SDS011;64313;51.018;13.742;2023-04-05T00:25:08;6.53;;;2.40;;
75698;SDS011;64313;51.018;13.742;2023-04-05T00:27:34;7.13;;;2.47;;
75698;SDS011;64313;51.018;13.742;2023-04-05T00:29:59;5.65;;;2.60;;
75698;SDS011;64313;51.018;13.742;2023-04-05T00:32:26;6.90;;;2.60;;
75698;SDS011;64313;51.018;13.742;2023-04-05T00:34:53;5.40;;;2.15;;
75698;SDS011;64313;51.018;13.742;2023-04-05T00:37:20;4.75;;;1.95;;
75698;SDS011;64313;51.018;13.742;2023-04-05T00:39:46;6.63;;;2.53;;
75698;SDS011;64313;51.018;13.742;2023-04-05T00:42:11;7.25;;;2.70;;
75698;SDS011;64313;51.018;13.742;2023-04-05T00:44:37;5.65;;;2.50;;
75698;SDS011;64313;51.018;13.742;2023-04-05T00:47:02;6.30;;;2.38;;
75698;SDS011;64313;51.018;13.742;2023-04-05T00:49:29;7.40;;;2.75;;
75698;SDS011;64313;51.018;13.742;2023-04-05T00:51:56;6.35;;;2.65;;
75698;SDS011;64313;51.018;13.742;2023-04-05T00:54:23;5.57;;;2.33;;
75698;SDS011;64313;51.018;13.742;2023-04-05T00:56:49;6.05;;;2.42;;
75698;SDS011;64313;51.018;13.742;2023-04-05T00:59:17;7.93;;;2.60;;
75698;SDS011;64313;51.018;13.742;2023-04-05T01:01:42;6.25;;;2.40;;
75698;SDS011;64313;51.018;13.742;2023-04-05T01:04:24;7.75;;;2.50;;
75698;SDS011;64313;51.018;13.742;2023-04-05T01:06:56;6.13;;;2.13;;
75698;SDS011;64313;51.018;13.742;2023-04-05T01:12:15;6.85;;;2.58;;
75698;SDS011;64313;51.018;13.742;2023-04-05T01:14:50;5.75;;;2.38;;
75698;SDS011;64313;51.018;13.742;2023-04-05T01:17:23;7.10;;;2.28;;
75698;SDS011;64313;51.018;13.742;2023-04-05T01:19:56;6.95;;;2.38;;
75698;SDS011;64313;51.018;13.742;2023-04-05T01:25:30;6.25;;;2.58;;
75698;SDS011;64313;51.018;13.742;2023-04-05T01:30:36;6.33;;;2.53;;
75698;SDS011;64313;51.018;13.742;2023-04-05T01:33:11;6.35;;;2.47;;
75698;SDS011;64313;51.018;13.742;2023-04-05T01:35:49;6.90;;;2.58;;
75698;SDS011;64313;51.018;13.742;2023-04-05T01:38:21;6.22;;;2.30;;
75698;SDS011;64313;51.018;13.742;2023-04-05T01:43:17;6.47;;;2.53;;
75698;SDS011;64313;51.018;13.742;2023-04-05T01:45:43;5.80;;;2.70;;
75698;SDS011;64313;51.018;13.742;2023-04-05T01:48:09;7.10;;;2.80;;
75698;SDS011;64313;51.018;13.742;2023-04-05T01:50:35;6.55;;;2.40;;
75698;SDS011;64313;51.018;13.742;2023-04-05T01:53:01;5.75;;;2.47;;
75698;SDS011;64313;51.018;13.742;2023-04-05T01:55:26;5.95;;;2.67;;
75698;SDS011;64313;51.018;13.742;2023-04-05T01:57:52;7.15;;;2.70;;
75698;SDS011;64313;51.018;13.742;2023-04-05T02:00:19;5.15;;;2.50;;
75698;SDS011;64313;51.018;13.742;2023-04-05T02:02:45;5.50;;;2.40;;
75698;SDS011;64313;51.018;13.742;2023-04-05T02:05:11;5.53;;;2.22;;
75698;SDS011;64313;51.018;13.742;2023-04-05T02:07:36;5.75;;;2.53;;
75698;SDS011;64313;51.018;13.742;2023-04-05T02:10:02;4.55;;;2.22;;
75698;SDS011;64313;51.018;13.742;2023-04-05T02:12:27;5.60;;;2.10;;
75698;SDS011;64313;51.018;13.742;2023-04-05T02:14:53;6.47;;;2.45;;
75698;SDS011;64313;51.018;13.742;2023-04-05T02:17:18;5.55;;;2.40;;
75698;SDS011;64313;51.018;13.742;2023-04-05T02:19:43;5.47;;;2.60;;
75698;SDS011;64313;51.018;13.742;2023-04-05T02:22:10;6.07;;;2.70;;
75698;SDS011;64313;51.018;13.742;2023-04-05T02:27:02;6.78;;;2.58;;
75698;SDS011;64313;51.018;13.742;2023-04-05T02:29:28;5.75;;;2.30;;
75698;SDS011;64313;51.018;13.742;2023-04-05T02:31:53;5.68;;;2.58;;
75698;SDS011;64313;51.018;13.742;2023-04-05T02:36:45;6.38;;;2.47;;
75698;SDS011;64313;51.018;13.742;2023-04-05T02:41:37;6.18;;;2.45;;
75698;SDS011;64313;51.018;13.742;2023-04-05T02:44:02;6.30;;;2.50;;
75698;SDS011;64313;51.018;13.742;2023-04-05T02:46:29;6.88;;;3.15;;
75698;SDS011;64313;51.018;13.742;2023-04-05T02:51:23;6.55;;;2.25;;
75698;SDS011;64313;51.018;13.742;2023-04-05T02:53:48;5.90;;;2.10;;
75698;SDS011;64313;51.018;13.742;2023-04-05T02:56:14;5.68;;;2.42;;
75698;SDS011;64313;51.018;13.742;2023-04-05T02:58:42;5.72;;;2.40;;
75698;SDS011;64313;51.018;13.742;2023-04-05T03:01:09;5.65;;;2.65;;
75698;SDS011;64313;51.018;13.742;2023-04-05T03:03:34;7.57;;;2.67;;
75698;SDS011;64313;51.018;13.742;2023-04-05T03:06:02;5.28;;;2.63;;
75698;SDS011;64313;51.018;13.742;2023-04-05T03:08:37;6.20;;;2.40;;
75698;SDS011;64313;51.018;13.742;2023-04-05T03:11:05;5.97;;;2.38;;
75698;SDS011;64313;51.018;13.742;2023-04-05T03:13:31;6.03;;;2.58;;
75698;SDS011;64313;51.018;13.742;2023-04-05T03:15:59;6.15;;;2.58;;
75698;SDS011;64313;51.018;13.742;2023-04-05T03:18:27;6.55;;;2.72;;
75698;SDS011;64313;51.018;13.742;2023-04-05T03:21:03;5.72;;;2.30;;
75698;SDS011;64313;51.018;13.742;2023-04-05T03:23:31;6.47;;;2.35;;
75698;SDS011;64313;51.018;13.742;2023-04-05T03:25:58;6.97;;;2.45;;
75698;SDS011;64313;51.018;13.742;2023-04-05T03:28:28;6.07;;;2.30;;
75698;SDS011;64313;51.018;13.742;2023-04-05T03:31:00;7.78;;;2.45;;
75698;SDS011;64313;51.018;13.742;2023-04-05T03:33:25;7.45;;;2.58;;
75698;SDS011;64313;51.018;13.742;2023-04-05T03:35:51;5.75;;;2.17;;
75698;SDS011;64313;51.018;13.742;2023-04-05T03:38:17;5.78;;;2.08;;
75698;SDS011;64313;51.018;13.742;2023-04-05T03:41:02;6.78;;;2.42;;
75698;SDS011;64313;51.018;13.742;2023-04-05T03:43:28;4.82;;;2.17;;
75698;SDS011;64313;51.018;13.742;2023-04-05T03:45:54;6.57;;;2.50;;
75698;SDS011;64313;51.018;13.742;2023-04-05T03:48:19;5.43;;;2.22;;
75698;SDS011;64313;51.018;13.742;2023-04-05T03:50:47;5.85;;;2.50;;
75698;SDS011;64313;51.018;13.742;2023-04-05T03:53:12;6.20;;;2.25;;
75698;SDS011;64313;51.018;13.742;2023-04-05T03:55:42;5.18;;;2.22;;
75698;SDS011;64313;51.018;13.742;2023-04-05T03:58:15;4.90;;;2.03;;
75698;SDS011;64313;51.018;13.742;2023-04-05T04:00:41;5.25;;;2.13;;
75698;SDS011;64313;51.018;13.742;2023-04-05T04:03:14;4.72;;;2.00;;
75698;SDS011;64313;51.018;13.742;2023-04-05T04:05:43;5.30;;;2.20;;
75698;SDS011;64313;51.018;13.742;2023-04-05T04:08:09;5.25;;;2.13;;
75698;SDS011;64313;51.018;13.742;2023-04-05T04:10:36;6.40;;;2.03;;
75698;SDS011;64313;51.018;13.742;2023-04-05T04:13:04;5.68;;;2.08;;
75698;SDS011;64313;51.018;13.742;2023-04-05T04:15:31;5.13;;;2.00;;
75698;SDS011;64313;51.018;13.742;2023-04-05T04:18:12;6.07;;;2.20;;
75698;SDS011;64313;51.018;13.742;2023-04-05T04:20:54;5.25;;;1.95;;
75698;SDS011;64313;51.018;13.742;2023-04-05T04:23:34;6.38;;;2.03;;
75698;SDS011;64313;51.018;13.742;2023-04-05T04:26:20;7.00;;;2.72;;
75698;SDS011;64313;51.018;13.742;2023-04-05T04:29:09;7.13;;;2.63;;
75698;SDS011;64313;51.018;13.742;2023-04-05T04:31:55;7.45;;;2.67;;
75698;SDS011;64313;51.018;13.742;2023-04-05T04:34:43;5.82;;;2.67;;
75698;SDS011;64313;51.018;13.742;2023-04-05T04:37:27;5.85;;;2.50;;
75698;SDS011;64313;51.018;13.742;2023-04-05T04:40:30;8.07;;;2.85;;
75698;SDS011;64313;51.018;13.742;2023-04-05T04:43:30;6.95;;;2.70;;
75698;SDS011;64313;51.018;13.742;2023-04-05T04:46:17;6.40;;;2.75;;
75698;SDS011;64313;51.018;13.742;2023-04-05T04:48:57;7.72;;;2.92;;
75698;SDS011;64313;51.018;13.742;2023-04-05T04:51:29;6.75;;;2.55;;
75698;SDS011;64313;51.018;13.742;2023-04-05T04:53:55;6.95;;;3.20;;
75698;SDS011;64313;51.018;13.742;2023-04-05T04:56:20;7.00;;;2.97;;
75698;SDS011;64313;51.018;13.742;2023-04-05T04:58:47;6.78;;;2.90;;
75698;SDS011;64313;51.018;13.742;2023-04-05T05:01:12;6.65;;;3.00;;
75698;SDS011;64313;51.018;13.742;2023-04-05T05:03:38;7.07;;;2.63;;
75698;SDS011;64313;51.018;13.742;2023-04-05T05:06:03;6.35;;;2.67;;
75698;SDS011;64313;51.018;13.742;2023-04-05T05:08:30;5.80;;;2.80;;
75698;SDS011;64313;51.018;13.742;2023-04-05T05:10:56;5.88;;;2.88;;
75698;SDS011;64313;51.018;13.742;2023-04-05T05:13:21;6.15;;;2.50;;
75698;SDS011;64313;51.018;13.742;2023-04-05T05:15:46;6.07;;;2.78;;
75698;SDS011;64313;51.018;13.742;2023-04-05T05:18:12;8.75;;;3.72;;
75698;SDS011;64313;51.018;13.742;2023-04-05T05:20:38;11.77;;;4.90;;
75698;SDS011;64313;51.018;13.742;2023-04-05T05:23:03;10.13;;;4.25;;
75698;SDS011;64313;51.018;13.742;2023-04-05T05:25:29;9.88;;;4.15;;
75698;SDS011;64313;51.018;13.742;2023-04-05T05:27:55;8.48;;;4.03;;
75698;SDS011;64313;51.018;13.742;2023-04-05T05:30:22;9.23;;;3.55;;
75698;SDS011;64313;51.018;13.742;2023-04-05T05:32:48;7.10;;;2.88;;
75698;SDS011;64313;51.018;13.742;2023-04-05T05:35:13;8.43;;;3.17;;
75698;SDS011;64313;51.018;13.742;2023-04-05T05:37:38;8.02;;;3.03;;
75698;SDS011;64313;51.018;13.742;2023-04-05T05:40:05;7.00;;;3.10;;
75698;SDS011;64313;51.018;13.742;2023-04-05T05:42:31;8.57;;;3.30;;
75698;SDS011;64313;51.018;13.742;2023-04-05T05:45:00;6.10;;;2.70;;
75698;SDS011;64313;51.018;13.742;2023-04-05T05:47:28;7.05;;;2.92;;
75698;SDS011;64313;51.018;13.742;2023-04-05T05:49:53;8.63;;;3.05;;
75698;SDS011;64313;51.018;13.742;2023-04-05T05:52:19;7.45;;;2.80;;
75698;SDS011;64313;51.018;13.742;2023-04-05T05:54:44;7.70;;;2.95;;
75698;SDS011;64313;51.018;13.742;2023-04-05T05:57:10;6.47;;;2.70;;
75698;SDS011;64313;51.018;13.742;2023-04-05T05:59:36;8.18;;;2.90;;
75698;SDS011;64313;51.018;13.742;2023-04-05T06:02:01;7.78;;;2.92;;
75698;SDS011;64313;51.018;13.742;2023-04-05T06:04:27;8.93;;;2.90;;
75698;SDS011;64313;51.018;13.742;2023-04-05T06:06:53;7.43;;;3.00;;
75698;SDS011;64313;51.018;13.742;2023-04-05T06:09:18;6.45;;;2.88;;
75698;SDS011;64313;51.018;13.742;2023-04-05T06:11:44;7.45;;;2.88;;
75698;SDS011;64313;51.018;13.742;2023-04-05T06:14:09;6.50;;;2.47;;
75698;SDS011;64313;51.018;13.742;2023-04-05T06:16:35;8.93;;;3.45;;
75698;SDS011;64313;51.018;13.742;2023-04-05T06:21:26;7.22;;;2.95;;
75698;SDS011;64313;51.018;13.742;2023-04-05T06:23:52;8.50;;;2.90;;
75698;SDS011;64313;51.018;13.742;2023-04-05T06:26:21;6.03;;;2.58;;
75698;SDS011;64313;51.018;13.742;2023-04-05T06:28:50;7.00;;;2.90;;
75698;SDS011;64313;51.018;13.742;2023-04-05T06:31:18;8.43;;;2.90;;
75698;SDS011;64313;51.018;13.742;2023-04-05T06:33:44;10.27;;;2.70;;
75698;SDS011;64313;51.018;13.742;2023-04-05T06:36:10;9.50;;;2.95;;
75698;SDS011;64313;51.018;13.742;2023-04-05T06:38:35;6.25;;;2.90;;
75698;SDS011;64313;51.018;13.742;2023-04-05T06:41:02;8.32;;;2.97;;
75698;SDS011;64313;51.018;13.742;2023-04-05T06:45:56;10.57;;;2.88;;
75698;SDS011;64313;51.018;13.742;2023-04-05T06:48:21;9.52;;;3.00;;
75698;SDS011;64313;51.018;13.742;2023-04-05T06:50:55;7.35;;;3.08;;
75698;SDS011;64313;51.018;13.742;2023-04-05T06:53:21;7.38;;;2.97;;
75698;SDS011;64313;51.018;13.742;2023-04-05T06:55:48;6.68;;;3.15;;
75698;SDS011;64313;51.018;13.742;2023-04-05T06:58:14;7.80;;;2.90;;
75698;SDS011;64313;51.018;13.742;2023-04-05T07:03:05;7.10;;;2.90;;
75698;SDS011;64313;51.018;13.742;2023-04-05T07:07:56;7.55;;;3.38;;
75698;SDS011;64313;51.018;13.742;2023-04-05T07:10:21;6.47;;;2.97;;
75698;SDS011;64313;51.018;13.742;2023-04-05T07:15:12;7.13;;;2.77;;
75698;SDS011;64313;51.018;13.742;2023-04-05T07:17:37;6.50;;;2.90;;
75698;SDS011;64313;51.018;13.742;2023-04-05T07:22:30;7.78;;;2.92;;
75698;SDS011;64313;51.018;13.742;2023-04-05T07:27:21;7.47;;;2.97;;
75698;SDS011;64313;51.018;13.742;2023-04-05T07:29:47;9.38;;;3.10;;
75698;SDS011;64313;51.018;13.742;2023-04-05T07:34:37;6.33;;;2.63;;
75698;SDS011;64313;51.018;13.742;2023-04-05T07:39:29;7.40;;;2.78;;
75698;SDS011;64313;51.018;13.742;2023-04-05T07:41:54;7.05;;;3.13;;
75698;SDS011;64313;51.018;13.742;2023-04-05T07:46:45;7.37;;;3.13;;
75698;SDS011;64313;51.018;13.742;2023-04-05T07:51:36;6.65;;;2.78;;
75698;SDS011;64313;51.018;13.742;2023-04-05T07:54:02;7.70;;;2.70;;
75698;SDS011;64313;51.018;13.742;2023-04-05T07:56:32;6.07;;;2.95;;
75698;SDS011;64313;51.018;13.742;2023-04-05T08:01:23;5.78;;;2.60;;
75698;SDS011;64313;51.018;13.742;2023-04-05T08:03:52;5.75;;;2.70;;
75698;SDS011;64313;51.018;13.742;2023-04-05T08:08:43;6.25;;;2.40;;
75698;SDS011;64313;51.018;13.742;2023-04-05T08:11:09;6.63;;;2.55;;
75698;SDS011;64313;51.018;13.742;2023-04-05T08:13:35;5.82;;;2.30;;
75698;SDS011;64313;51.018;13.742;2023-04-05T08:16:02;6.95;;;2.25;;
75698;SDS011;64313;51.018;13.742;2023-04-05T08:20:53;4.75;;;1.90;;
75698;SDS011;64313;51.018;13.742;2023-04-05T08:23:19;6.03;;;2.38;;
75698;SDS011;64313;51.018;13.742;2023-04-05T08:28:11;6.68;;;2.10;;
75698;SDS011;64313;51.018;13.742;2023-04-05T08:33:02;7.68;;;2.53;;
75698;SDS011;64313;51.018;13.742;2023-04-05T08:37:53;7.20;;;2.60;;
75698;SDS011;64313;51.018;13.742;2023-04-05T08:42:45;6.07;;;2.40;;
75698;SDS011;64313;51.018;13.742;2023-04-05T08:45:16;8.40;;;2.60;;
75698;SDS011;64313;51.018;13.742;2023-04-05T08:47:43;6.15;;;2.67;;
75698;SDS011;64313;51.018;13.742;2023-04-05T08:50:10;10.32;;;3.00;;
75698;SDS011;64313;51.018;13.742;2023-04-05T08:52:37;7.25;;;2.42;;
75698;SDS011;64313;51.018;13.742;2023-04-05T08:55:07;6.07;;;2.40;;
75698;SDS011;64313;51.018;13.742;2023-04-05T08:57:32;7.20;;;2.55;;
75698;SDS011;64313;51.018;13.742;2023-04-05T09:00:03;6.43;;;2.50;;
75698;SDS011;64313;51.018;13.742;2023-04-05T09:02:34;5.82;;;2.17;;
75698;SDS011;64313;51.018;13.742;2023-04-05T09:05:00;9.18;;;2.40;;
75698;SDS011;64313;51.018;13.742;2023-04-05T09:07:26;5.28;;;1.95;;
75698;SDS011;64313;51.018;13.742;2023-04-05T09:09:54;4.70;;;1.90;;
75698;SDS011;64313;51.018;13.742;2023-04-05T09:12:23;6.63;;;1.90;;
75698;SDS011;64313;51.018;13.742;2023-04-05T09:14:49;4.75;;;2.30;;
75698;SDS011;64313;51.018;13.742;2023-04-05T09:17:16;4.65;;;1.95;;
75698;SDS011;64313;51.018;13.742;2023-04-05T09:19:45;6.00;;;2.20;;
75698;SDS011;64313;51.018;13.742;2023-04-05T09:22:14;6.47;;;2.55;;
75698;SDS011;64313;51.018;13.742;2023-04-05T09:24:42;5.97;;;2.35;;
75698;SDS011;64313;51.018;13.742;2023-04-05T09:27:13;5.07;;;2.20;;
75698;SDS011;64313;51.018;13.742;2023-04-05T09:29:45;5.70;;;2.08;;
75698;SDS011;64313;51.018;13.742;2023-04-05T09:32:12;4.65;;;1.90;;
75698;SDS011;64313;51.018;13.742;2023-04-05T09:34:38;6.45;;;1.95;;
75698;SDS011;64313;51.018;13.742;2023-04-05T09:37:16;4.15;;;1.90;;
75698;SDS011;64313;51.018;13.742;2023-04-05T09:39:44;5.20;;;2.00;;
75698;SDS011;64313;51.018;13.742;2023-04-05T09:42:14;8.98;;;2.85;;
75698;SDS011;64313;51.018;13.742;2023-04-05T09:44:58;5.43;;;2.00;;
75698;SDS011;64313;51.018;13.742;2023-04-05T09:47:27;4.97;;;1.90;;
75698;SDS011;64313;51.018;13.742;2023-04-05T09:52:39;5.78;;;2.40;;
75698;SDS011;64313;51.018;13.742;2023-04-05T09:55:05;4.72;;;2.13;;
75698;SDS011;64313;51.018;13.742;2023-04-05T09:57:40;6.28;;;2.00;;
75698;SDS011;64313;51.018;13.742;2023-04-05T10:00:17;6.10;;;2.10;;
75698;SDS011;64313;51.018;13.742;2023-04-05T10:02:46;6.30;;;1.83;;
75698;SDS011;64313;51.018;13.742;2023-04-05T10:05:16;4.65;;;1.90;;
75698;SDS011;64313;51.018;13.742;2023-04-05T10:07:42;4.95;;;2.13;;
75698;SDS011;64313;51.018;13.742;2023-04-05T10:12:33;5.82;;;1.98;;
75698;SDS011;64313;51.018;13.742;2023-04-05T10:15:02;4.97;;;2.08;;
75698;SDS011;64313;51.018;13.742;2023-04-05T10:20:34;5.03;;;2.00;;
75698;SDS011;64313;51.018;13.742;2023-04-05T10:23:06;7.00;;;2.53;;
75698;SDS011;64313;51.018;13.742;2023-04-05T10:33:34;5.95;;;1.92;;
75698;SDS011;64313;51.018;13.742;2023-04-05T10:36:08;4.90;;;1.90;;
75698;SDS011;64313;51.018;13.742;2023-04-05T10:41:47;5.55;;;2.10;;
75698;SDS011;64313;51.018;13.742;2023-04-05T10:44:16;5.70;;;1.92;;
75698;SDS011;64313;51.018;13.742;2023-04-05T10:51:44;4.75;;;1.83;;
75698;SDS011;64313;51.018;13.742;2023-04-05T10:54:10;4.47;;;1.65;;
75698;SDS011;64313;51.018;13.742;2023-04-05T10:59:02;4.75;;;1.70;;
75698;SDS011;64313;51.018;13.742;2023-04-05T11:01:29;4.30;;;1.63;;
75698;SDS011;64313;51.018;13.742;2023-04-05T11:09:06;5.18;;;2.00;;
75698;SDS011;64313;51.018;13.742;2023-04-05T11:11:38;6.13;;;2.10;;
75698;SDS011;64313;51.018;13.742;2023-04-05T11:17:00;5.60;;;1.98;;
75698;SDS011;64313;51.018;13.742;2023-04-05T11:22:11;4.68;;;1.70;;
75698;SDS011;64313;51.018;13.742;2023-04-05T11:24:51;5.53;;;1.80;;
75698;SDS011;64313;51.018;13.742;2023-04-05T11:27:27;6.22;;;2.10;;
75698;SDS011;64313;51.018;13.742;2023-04-05T11:29:55;6.85;;;1.80;;
75698;SDS011;64313;51.018;13.742;2023-04-05T11:32:22;4.50;;;1.77;;
75698;SDS011;64313;51.018;13.742;2023-04-05T11:34:58;6.07;;;1.67;;
75698;SDS011;64313;51.018;13.742;2023-04-05T11:40:29;4.90;;;2.00;;
75698;SDS011;64313;51.018;13.742;2023-04-05T11:45:32;4.68;;;1.73;;
75698;SDS011;64313;51.018;13.742;2023-04-05T11:47:59;4.00;;;1.58;;
75698;SDS011;64313;51.018;13.742;2023-04-05T11:50:29;4.03;;;1.50;;
75698;SDS011;64313;51.018;13.742;2023-04-05T11:55:36;5.28;;;1.75;;
75698;SDS011;64313;51.018;13.742;2023-04-05T11:58:02;5.93;;;1.90;;
75698;SDS011;64313;51.018;13.742;2023-04-05T12:00:35;6.13;;;1.63;;
75698;SDS011;64313;51.018;13.742;2023-04-05T12:03:00;4.65;;;1.40;;
75698;SDS011;64313;51.018;13.742;2023-04-05T12:07:51;5.23;;;2.00;;
75698;SDS011;64313;51.018;13.742;2023-04-05T12:10:20;4.25;;;1.70;;
75698;SDS011;64313;51.018;13.742;2023-04-05T12:12:45;4.22;;;1.70;;
75698;SDS011;64313;51.018;13.742;2023-04-05T12:15:13;5.13;;;1.70;;
75698;SDS011;64313;51.018;13.742;2023-04-05T12:17:49;6.47;;;1.90;;
75698;SDS011;64313;51.018;13.742;2023-04-05T12:20:17;4.80;;;1.58;;
75698;SDS011;64313;51.018;13.742;2023-04-05T12:22:44;5.30;;;1.92;;
75698;SDS011;64313;51.018;13.742;2023-04-05T12:25:14;4.30;;;1.38;;
75698;SDS011;64313;51.018;13.742;2023-04-05T12:27:41;3.70;;;1.52;;
75698;SDS011;64313;51.018;13.742;2023-04-05T12:32:49;4.07;;;1.50;;
75698;SDS011;64313;51.018;13.742;2023-04-05T12:37:43;4.32;;;1.50;;
75698;SDS011;64313;51.018;13.742;2023-04-05T12:40:09;3.72;;;1.52;;
75698;SDS011;64313;51.018;13.742;2023-04-05T12:42:36;4.70;;;1.88;;
75698;SDS011;64313;51.018;13.742;2023-04-05T12:45:03;5.00;;;1.67;;
75698;SDS011;64313;51.018;13.742;2023-04-05T12:47:31;5.03;;;1.50;;
75698;SDS011;64313;51.018;13.742;2023-04-05T12:50:08;5.40;;;1.73;;
75698;SDS011;64313;51.018;13.742;2023-04-05T12:52:34;4.63;;;1.77;;
75698;SDS011;64313;51.018;13.742;2023-04-05T12:55:00;4.00;;;1.50;;
75698;SDS011;64313;51.018;13.742;2023-04-05T12:57:32;3.97;;;1.67;;
75698;SDS011;64313;51.018;13.742;2023-04-05T12:59:57;4.72;;;1.80;;
75698;SDS011;64313;51.018;13.742;2023-04-05T13:02:22;4.60;;;1.70;;
75698;SDS011;64313;51.018;13.742;2023-04-05T13:04:48;3.53;;;1.27;;
75698;SDS011;64313;51.018;13.742;2023-04-05T13:09:38;4.73;;;1.50;;
75698;SDS011;64313;51.018;13.742;2023-04-05T13:12:03;4.82;;;1.60;;
75698;SDS011;64313;51.018;13.742;2023-04-05T13:14:29;5.90;;;1.75;;
75698;SDS011;64313;51.018;13.742;2023-04-05T13:16:54;4.45;;;1.50;;
75698;SDS011;64313;51.018;13.742;2023-04-05T13:19:20;4.45;;;1.60;;
75698;SDS011;64313;51.018;13.742;2023-04-05T13:21:45;4.68;;;1.50;;
75698;SDS011;64313;51.018;13.742;2023-04-05T13:24:11;4.25;;;1.55;;
75698;SDS011;64313;51.018;13.742;2023-04-05T13:26:36;5.65;;;2.10;;
75698;SDS011;64313;51.018;13.742;2023-04-05T13:31:27;4.57;;;1.88;;
75698;SDS011;64313;51.018;13.742;2023-04-05T13:33:53;4.53;;;1.60;;
75698;SDS011;64313;51.018;13.742;2023-04-05T13:36:18;3.35;;;1.35;;
75698;SDS011;64313;51.018;13.742;2023-04-05T13:38:44;4.85;;;1.60;;
75698;SDS011;64313;51.018;13.742;2023-04-05T13:41:09;3.22;;;1.38;;
75698;SDS011;64313;51.018;13.742;2023-04-05T13:43:35;4.60;;;1.98;;
75698;SDS011;64313;51.018;13.742;2023-04-05T13:46:00;4.43;;;1.65;;
75698;SDS011;64313;51.018;13.742;2023-04-05T13:48:26;6.50;;;1.80;;
75698;SDS011;64313;51.018;13.742;2023-04-05T13:50:51;4.90;;;1.88;;
75698;SDS011;64313;51.018;13.742;2023-04-05T13:53:18;4.28;;;1.70;;
75698;SDS011;64313;51.018;13.742;2023-04-05T13:55:43;4.38;;;1.70;;
75698;SDS011;64313;51.018;13.742;2023-04-05T13:58:08;3.88;;;1.40;;
75698;SDS011;64313;51.018;13.742;2023-04-05T14:00:34;4.43;;;1.40;;
75698;SDS011;64313;51.018;13.742;2023-04-05T14:02:59;4.95;;;2.00;;
75698;SDS011;64313;51.018;13.742;2023-04-05T14:05:24;6.15;;;2.10;;
75698;SDS011;64313;51.018;13.742;2023-04-05T14:07:50;4.15;;;1.65;;
75698;SDS011;64313;51.018;13.742;2023-04-05T14:10:15;4.85;;;1.73;;
75698;SDS011;64313;51.018;13.742;2023-04-05T14:12:41;4.93;;;1.60;;
75698;SDS011;64313;51.018;13.742;2023-04-05T14:15:07;4.57;;;1.70;;
75698;SDS011;64313;51.018;13.742;2023-04-05T14:17:32;4.18;;;1.50;;
75698;SDS011;64313;51.018;13.742;2023-04-05T14:19:57;5.50;;;2.10;;
75698;SDS011;64313;51.018;13.742;2023-04-05T14:22:23;4.40;;;1.70;;
75698;SDS011;64313;51.018;13.742;2023-04-05T14:24:49;4.70;;;1.80;;
75698;SDS011;64313;51.018;13.742;2023-04-05T14:27:14;5.00;;;1.75;;
75698;SDS011;64313;51.018;13.742;2023-04-05T14:29:39;3.45;;;1.25;;
75698;SDS011;64313;51.018;13.742;2023-04-05T14:32:05;4.03;;;1.23;;
75698;SDS011;64313;51.018;13.742;2023-04-05T14:34:30;4.32;;;1.50;;
75698;SDS011;64313;51.018;13.742;2023-04-05T14:36:55;3.90;;;1.45;;
75698;SDS011;64313;51.018;13.742;2023-04-05T14:39:22;4.97;;;1.50;;
75698;SDS011;64313;51.018;13.742;2023-04-05T14:41:47;3.67;;;1.35;;
75698;SDS011;64313;51.018;13.742;2023-04-05T14:44:16;4.28;;;1.50;;
75698;SDS011;64313;51.018;13.742;2023-04-05T14:46:41;3.70;;;1.48;;
75698;SDS011;64313;51.018;13.742;2023-04-05T14:49:07;4.55;;;1.48;;
75698;SDS011;64313;51.018;13.742;2023-04-05T14:51:32;3.08;;;1.30;;
75698;SDS011;64313;51.018;13.742;2023-04-05T14:56:23;4.20;;;1.20;;
75698;SDS011;64313;51.018;13.742;2023-04-05T14:58:49;4.05;;;1.77;;
75698;SDS011;64313;51.018;13.742;2023-04-05T15:01:15;3.33;;;1.40;;
75698;SDS011;64313;51.018;13.742;2023-04-05T15:03:40;4.75;;;1.88;;
75698;SDS011;64313;51.018;13.742;2023-04-05T15:06:05;4.05;;;1.40;;
75698;SDS011;64313;51.018;13.742;2023-04-05T15:08:31;4.32;;;1.50;;
75698;SDS011;64313;51.018;13.742;2023-04-05T15:10:56;3.80;;;1.30;;
75698;SDS011;64313;51.018;13.742;2023-04-05T15:13:22;4.13;;;1.40;;
75698;SDS011;64313;51.018;13.742;2023-04-05T15:15:50;5.43;;;1.60;;
75698;SDS011;64313;51.018;13.742;2023-04-05T15:18:15;4.00;;;1.60;;
75698;SDS011;64313;51.018;13.742;2023-04-05T15:20:41;3.30;;;1.30;;
75698;SDS011;64313;51.018;13.742;2023-04-05T15:23:06;3.45;;;1.33;;
75698;SDS011;64313;51.018;13.742;2023-04-05T15:25:31;4.45;;;1.40;;
75698;SDS011;64313;51.018;13.742;2023-04-05T15:27:57;3.60;;;1.20;;
75698;SDS011;64313;51.018;13.742;2023-04-05T15:30:24;4.82;;;1.30;;
75698;SDS011;64313;51.018;13.742;2023-04-05T15:32:51;3.78;;;1.27;;
75698;SDS011;64313;51.018;13.742;2023-04-05T15:35:17;4.35;;;1.40;;
75698;SDS011;64313;51.018;13.742;2023-04-05T15:37:42;4.25;;;1.30;;
75698;SDS011;64313;51.018;13.742;2023-04-05T15:40:08;4.60;;;1.40;;
75698;SDS011;64313;51.018;13.742;2023-04-05T15:42:33;3.65;;;1.30;;
75698;SDS011;64313;51.018;13.742;2023-04-05T15:45:00;4.80;;;1.35;;
75698;SDS011;64313;51.018;13.742;2023-04-05T15:47:25;3.42;;;1.20;;
75698;SDS011;64313;51.018;13.742;2023-04-05T15:49:51;4.03;;;1.42;;
75698;SDS011;64313;51.018;13.742;2023-04-05T15:52:16;3.17;;;1.25;;
75698;SDS011;64313;51.018;13.742;2023-04-05T15:54:42;4.38;;;1.52;;
75698;SDS011;64313;51.018;13.742;2023-04-05T15:57:08;3.22;;;1.15;;
75698;SDS011;64313;51.018;13.742;2023-04-05T15:59:36;4.07;;;1.50;;
75698;SDS011;64313;51.018;13.742;2023-04-05T16:02:02;4.20;;;1.58;;
75698;SDS011;64313;51.018;13.742;2023-04-05T16:06:54;4.55;;;1.75;;
75698;SDS011;64313;51.018;13.742;2023-04-05T16:09:19;3.67;;;1.40;;
75698;SDS011;64313;51.018;13.742;2023-04-05T16:11:44;4.68;;;1.40;;
75698;SDS011;64313;51.018;13.742;2023-04-05T16:14:10;4.28;;;1.52;;
75698;SDS011;64313;51.018;13.742;2023-04-05T16:16:37;3.88;;;1.55;;
75698;SDS011;64313;51.018;13.742;2023-04-05T16:19:02;3.95;;;1.40;;
75698;SDS011;64313;51.018;13.742;2023-04-05T16:21:27;4.88;;;1.60;;
75698;SDS011;64313;51.018;13.742;2023-04-05T16:23:54;4.60;;;1.55;;
75698;SDS011;64313;51.018;13.742;2023-04-05T16:26:20;4.47;;;1.50;;
75698;SDS011;64313;51.018;13.742;2023-04-05T16:28:46;3.85;;;1.23;;
75698;SDS011;64313;51.018;13.742;2023-04-05T16:33:37;4.70;;;1.60;;
75698;SDS011;64313;51.018;13.742;2023-04-05T16:36:02;4.80;;;1.50;;
75698;SDS011;64313;51.018;13.742;2023-04-05T16:40:53;5.77;;;1.60;;
75698;SDS011;64313;51.018;13.742;2023-04-05T16:45:44;5.00;;;1.83;;
75698;SDS011;64313;51.018;13.742;2023-04-05T16:50:34;4.75;;;1.63;;
75698;SDS011;64313;51.018;13.742;2023-04-05T16:53:01;4.47;;;1.55;;